Time;durP1;ratioP1;P1;durP2;ratioP2;P2;SDS_P1;SDS_P2;PMS_P1;PMS_P2;Temp;Humidity;BMP_temperature;BMP_pressure;BME280_temperature;BME280_humidity;BME280_pressure;Samples;Min_cycle;Max_cycle;Signal;HPM_P1;HPM_P2
2022/11/10 00:00:55;;;;;;;67.57;29.60;;;;;;;7.23;100.00;99839.31;4135876;28;22487;-76
2022/11/10 00:03:22;;;;;;;70.17;30.10;;;;;;;7.14;100.00;99836.53;4140818;28;22001;-74
2022/11/10 00:05:49;;;;;;;67.73;30.13;;;;;;;7.17;100.00;99830.94;4147350;28;22666;-76
2022/11/10 00:08:16;;;;;;;76.47;29.83;;;;;;;7.30;100.00;99825.38;4126905;28;22969;-74
2022/11/10 00:10:57;;;;;;;68.40;30.50;;;;;;;7.29;100.00;99829.00;4136272;28;20232;-73
2022/11/10 00:13:26;;;;;;;69.90;31.70;;;;;;;7.34;100.00;99834.72;4135102;28;20238;-73
2022/11/10 00:18:38;;;;;;;66.30;28.97;;;;;;;7.29;100.00;99841.41;4132504;28;20357;-74
2022/11/10 00:21:07;;;;;;;64.00;29.23;;;;;;;7.35;100.00;99841.69;4136378;28;20660;-73
2022/11/10 00:23:33;;;;;;;67.40;29.10;;;;;;;7.37;100.00;99846.81;4154894;28;20241;-74
2022/11/10 00:26:00;;;;;;;73.50;30.40;;;;;;;7.38;100.00;99849.34;4119624;28;23645;-74
2022/11/10 00:28:29;;;;;;;71.57;31.13;;;;;;;7.30;100.00;99851.00;4137299;28;20324;-75
2022/11/10 00:30:56;;;;;;;62.27;29.83;;;;;;;7.30;100.00;99857.13;4135801;28;23441;-74
2022/11/10 00:33:22;;;;;;;71.37;30.40;;;;;;;7.29;100.00;99863.41;4129411;28;21435;-75
2022/11/10 00:35:49;;;;;;;69.93;29.33;;;;;;;7.31;100.00;99852.69;4137067;28;20306;-74
2022/11/10 00:38:16;;;;;;;68.63;30.53;;;;;;;7.30;100.00;99848.34;4141558;28;20709;-74
2022/11/10 00:40:42;;;;;;;65.67;28.90;;;;;;;7.38;100.00;99854.63;4125900;28;20254;-74
2022/11/10 00:43:09;;;;;;;64.40;29.23;;;;;;;7.37;100.00;99854.78;4135345;28;20344;-73
2022/11/10 00:45:35;;;;;;;69.77;29.57;;;;;;;7.34;100.00;99857.72;4139609;28;20458;-74
2022/11/10 00:48:02;;;;;;;64.23;29.00;;;;;;;7.38;100.00;99864.41;4135735;28;23453;-75
2022/11/10 00:50:28;;;;;;;68.37;30.77;;;;;;;7.37;100.00;99862.72;4136726;28;20244;-72
2022/11/10 00:52:55;;;;;;;68.63;29.43;;;;;;;7.32;100.00;99854.34;4136694;28;20544;-75
2022/11/10 00:55:21;;;;;;;66.17;29.20;;;;;;;7.31;100.00;99853.53;4131062;28;21241;-74
2022/11/10 00:57:48;;;;;;;63.90;28.13;;;;;;;7.35;100.00;99860.22;4127821;28;20232;-74
2022/11/10 01:00:15;;;;;;;62.90;29.43;;;;;;;7.34;100.00;99855.06;4135614;28;22788;-75
2022/11/10 01:02:41;;;;;;;65.33;28.73;;;;;;;7.27;100.00;99861.88;4136381;28;21249;-75
2022/11/10 01:05:08;;;;;;;64.53;29.03;;;;;;;7.35;100.00;99864.66;4134361;28;20704;-73
2022/11/10 01:07:34;;;;;;;61.90;30.17;;;;;;;7.32;100.00;99870.22;4132204;28;20311;-73
2022/11/10 01:10:01;;;;;;;74.37;33.13;;;;;;;7.32;100.00;99859.66;4142114;28;20402;-73
2022/11/10 01:12:29;;;;;;;73.90;31.00;;;;;;;7.35;100.00;99859.38;4136645;28;20242;-72
2022/11/10 01:14:56;;;;;;;64.17;29.70;;;;;;;7.29;100.00;99859.94;4128483;28;23556;-73
2022/11/10 01:17:22;;;;;;;71.33;30.53;;;;;;;7.33;100.00;99858.69;4136063;28;20243;-74
2022/11/10 01:19:49;;;;;;;65.27;29.70;;;;;;;7.38;100.00;99853.81;4130736;28;20246;-74
2022/11/10 01:22:15;;;;;;;68.80;30.03;;;;;;;7.40;100.00;99858.00;4134215;28;20334;-73
2022/11/10 01:24:42;;;;;;;66.57;30.17;;;;;;;7.42;100.00;99865.78;4124639;28;20249;-74
2022/11/10 01:27:08;;;;;;;66.77;30.10;;;;;;;7.40;100.00;99862.44;4139511;28;20251;-73
2022/11/10 01:29:35;;;;;;;69.87;30.70;;;;;;;7.43;100.00;99862.16;4138752;28;20255;-76
2022/11/10 01:32:01;;;;;;;70.50;29.80;;;;;;;7.37;100.00;99857.41;4134560;28;20251;-74
2022/11/10 01:34:28;;;;;;;63.83;29.93;;;;;;;7.41;100.00;99861.47;4138562;28;20311;-75
2022/11/10 01:36:54;;;;;;;64.33;30.33;;;;;;;7.42;100.00;99859.66;4132554;28;20247;-73
2022/11/10 01:39:21;;;;;;;69.70;30.83;;;;;;;7.43;100.00;99859.53;4127496;28;20303;-73
2022/11/10 01:41:48;;;;;;;61.73;30.00;;;;;;;7.46;100.00;99861.88;4143992;28;20799;-76
2022/11/10 01:44:22;;;;;;;66.27;29.63;;;;;;;7.43;100.00;99853.41;4137514;28;20364;-72
2022/11/10 01:46:48;;;;;;;62.93;28.93;;;;;;;7.44;100.00;99863.00;4131867;28;20573;-74
2022/11/10 01:49:20;;;;;;;67.37;29.43;;;;;;;7.48;100.00;99865.22;4140941;28;20400;-75
2022/11/10 01:51:59;;;;;;;69.23;31.37;;;;;;;7.48;100.00;99859.09;4139043;28;20235;-74
2022/11/10 01:54:28;;;;;;;70.93;30.43;;;;;;;7.47;100.00;99863.56;4135792;28;20315;-76
2022/11/10 01:56:58;;;;;;;66.33;29.40;;;;;;;7.50;100.00;99858.00;4133099;28;20229;-77
2022/11/10 01:59:29;;;;;;;69.53;31.07;;;;;;;7.51;100.00;99858.81;4125826;28;21266;-73
2022/11/10 02:02:05;;;;;;;66.50;29.67;;;;;;;7.57;100.00;99867.03;4133234;28;20258;-74
2022/11/10 02:04:32;;;;;;;68.97;29.60;;;;;;;7.56;100.00;99865.38;4114391;28;20437;-73
2022/11/10 02:06:59;;;;;;;62.97;30.27;;;;;;;7.59;100.00;99867.75;4139908;28;20308;-74
2022/11/10 02:09:25;;;;;;;68.47;31.90;;;;;;;7.57;100.00;99868.84;4141084;28;20339;-73
2022/11/10 02:11:53;;;;;;;71.73;30.60;;;;;;;7.67;100.00;99874.16;4132395;28;20235;-73
2022/11/10 02:14:20;;;;;;;69.13;29.40;;;;;;;7.65;100.00;99876.09;4138809;28;20242;-74
2022/11/10 02:16:47;;;;;;;68.50;30.90;;;;;;;7.67;100.00;99868.84;4142162;28;20372;-75
2022/11/10 02:19:17;;;;;;;67.90;30.50;;;;;;;7.69;100.00;99867.72;4138672;28;20241;-76
2022/11/10 02:21:44;;;;;;;69.03;29.73;;;;;;;7.76;100.00;99871.50;4134094;28;20428;-74
2022/11/10 02:24:10;;;;;;;68.47;30.70;;;;;;;7.71;100.00;99870.25;4139326;28;20240;-74
2022/11/10 02:26:42;;;;;;;66.83;30.23;;;;;;;7.77;100.00;99873.19;4133935;28;22956;-74
2022/11/10 02:29:09;;;;;;;64.60;29.87;;;;;;;7.80;100.00;99882.66;4149916;28;20676;-76
2022/11/10 02:31:35;;;;;;;68.60;31.13;;;;;;;7.77;100.00;99877.63;4136023;28;20242;-76
2022/11/10 02:34:02;;;;;;;66.97;29.67;;;;;;;7.79;100.00;99879.16;4139403;28;20340;-75
2022/11/10 02:36:28;;;;;;;64.73;30.40;;;;;;;7.75;100.00;99887.50;4135777;28;20240;-72
2022/11/10 02:38:55;;;;;;;71.97;31.50;;;;;;;7.66;100.00;99877.78;4134160;28;20409;-71
2022/11/10 02:41:21;;;;;;;74.57;31.97;;;;;;;7.65;100.00;99892.81;4133424;28;20242;-71
2022/11/10 02:43:48;;;;;;;70.80;31.53;;;;;;;7.65;100.00;99897.28;4135828;28;20252;-72
2022/11/10 02:46:14;;;;;;;69.40;30.27;;;;;;;7.67;100.00;99900.63;4142696;28;21324;-71
2022/11/10 02:48:41;;;;;;;64.87;31.10;;;;;;;7.73;100.00;99905.38;4140610;28;20370;-73
2022/11/10 02:51:08;;;;;;;70.63;31.57;;;;;;;7.76;100.00;99913.03;4128457;28;20246;-72
2022/11/10 02:53:35;;;;;;;64.77;30.10;;;;;;;7.77;100.00;99906.75;4132712;28;20243;-70
2022/11/10 02:56:01;;;;;;;71.43;31.73;;;;;;;7.70;100.00;99910.94;4135854;28;20248;-72
2022/11/10 02:58:28;;;;;;;68.60;30.50;;;;;;;7.69;100.00;99898.69;4137326;28;20607;-71
2022/11/10 03:00:54;;;;;;;69.80;31.30;;;;;;;7.63;100.00;99907.16;4141442;28;20244;-71
2022/11/10 03:03:21;;;;;;;71.63;31.97;;;;;;;7.59;100.00;99899.50;4140046;28;20249;-70
2022/11/10 03:05:48;;;;;;;73.93;31.07;;;;;;;7.58;100.00;99905.78;4140499;28;20363;-70
2022/11/10 03:08:15;;;;;;;68.43;31.03;;;;;;;7.71;100.00;99904.69;4136349;28;20302;-70
2022/11/10 03:10:41;;;;;;;74.70;30.47;;;;;;;7.76;100.00;99905.91;4143316;28;20231;-70
2022/11/10 03:13:07;;;;;;;68.90;31.33;;;;;;;7.75;100.00;99892.81;4143983;28;21717;-71
2022/11/10 03:15:34;;;;;;;67.50;29.93;;;;;;;7.75;100.00;99903.41;4135604;28;20342;-72
2022/11/10 03:18:04;;;;;;;66.33;30.23;;;;;;;7.87;100.00;99897.00;4136775;29;20234;-72
2022/11/10 03:20:30;;;;;;;69.17;30.17;;;;;;;7.91;100.00;99901.03;4136889;28;24576;-73
2022/11/10 03:23:01;;;;;;;69.50;31.77;;;;;;;7.94;100.00;99902.59;4138509;28;20248;-71
2022/11/10 03:25:28;;;;;;;64.47;30.30;;;;;;;7.94;100.00;99911.34;4149554;28;25696;-71
2022/11/10 03:27:55;;;;;;;69.93;30.07;;;;;;;7.89;100.00;99910.09;4131350;28;20235;-72
2022/11/10 03:30:21;;;;;;;71.27;31.10;;;;;;;7.83;100.00;99908.84;4139975;28;22769;-70
2022/11/10 03:32:47;;;;;;;68.73;31.00;;;;;;;7.86;100.00;99905.09;4132267;28;20766;-71
2022/11/10 03:35:14;;;;;;;73.93;31.93;;;;;;;7.91;100.00;99913.44;4134249;28;20631;-71
2022/11/10 03:37:41;;;;;;;75.00;31.37;;;;;;;7.85;100.00;99914.84;4141128;28;20406;-71
2022/11/10 03:40:08;;;;;;;66.60;29.63;;;;;;;7.86;100.00;99916.50;4135930;28;20369;-72
2022/11/10 03:42:34;;;;;;;77.93;32.83;;;;;;;7.74;100.00;99912.34;4136280;28;20235;-71
2022/11/10 03:45:01;;;;;;;70.20;30.27;;;;;;;7.85;100.00;99917.50;4151429;28;21205;-72
2022/11/10 03:47:28;;;;;;;75.30;31.70;;;;;;;7.84;100.00;99923.75;4135360;28;20442;-72
2022/11/10 03:49:54;;;;;;;67.47;30.73;;;;;;;7.88;100.00;99924.31;4134129;28;22720;-71
2022/11/10 03:52:21;;;;;;;70.70;29.77;;;;;;;7.87;100.00;99931.44;4141419;28;20239;-70
2022/11/10 03:54:47;;;;;;;65.80;30.33;;;;;;;7.94;100.00;99929.91;4139861;28;20637;-71
2022/11/10 03:57:14;;;;;;;71.13;30.33;;;;;;;7.89;100.00;99937.44;4135349;28;20370;-71
2022/11/10 03:59:41;;;;;;;72.27;31.13;;;;;;;7.78;100.00;99925.16;4136787;28;20315;-72
2022/11/10 04:02:07;;;;;;;67.83;28.57;;;;;;;7.80;100.00;99933.81;4141754;28;22636;-70
2022/11/10 04:10:04;;;;;;;74.27;32.13;;;;;;;7.81;100.00;99934.63;4136959;28;20271;-73
2022/11/10 04:18:20;;;;;;;75.53;33.00;;;;;;;7.57;100.00;99937.69;4137699;28;21096;-73
2022/11/10 04:20:47;;;;;;;76.30;32.83;;;;;;;7.64;100.00;99938.00;4138084;28;20290;-72
2022/11/10 04:23:26;;;;;;;76.90;32.27;;;;;;;7.63;100.00;99946.88;4146475;28;21084;-71
2022/11/10 04:28:40;;;;;;;77.03;31.77;;;;;;;7.56;100.00;99952.75;4150067;28;21051;-71
2022/11/10 04:31:06;;;;;;;79.27;35.07;;;;;;;7.54;100.00;99948.56;4132073;28;21940;-73
2022/11/10 04:33:34;;;;;;;82.93;34.83;;;;;;;7.61;100.00;99939.94;4140003;28;20247;-72
2022/11/10 04:36:01;;;;;;;78.40;31.50;;;;;;;7.71;100.00;99947.88;4135518;28;20677;-72
2022/11/10 04:38:28;;;;;;;92.93;35.90;;;;;;;7.67;100.00;99957.06;4132814;28;20410;-72
2022/11/10 04:40:54;;;;;;;77.70;34.87;;;;;;;7.84;100.00;99955.53;4147607;28;26392;-72
2022/11/10 04:43:21;;;;;;;79.40;33.37;;;;;;;7.82;100.00;99962.81;4144479;28;20417;-73
2022/11/10 04:45:48;;;;;;;80.77;33.53;;;;;;;7.79;100.00;99966.56;4140264;28;20290;-72
2022/11/10 04:48:15;;;;;;;84.70;34.23;;;;;;;7.75;100.00;99967.81;4134944;28;20296;-71
2022/11/10 04:50:41;;;;;;;84.50;36.27;;;;;;;7.76;100.00;99966.00;4142391;28;20270;-71
2022/11/10 04:53:08;;;;;;;82.00;34.33;;;;;;;7.59;100.00;99960.41;4137644;28;21174;-72
2022/11/10 04:55:38;;;;;;;81.90;34.10;;;;;;;7.56;100.00;99960.69;4135302;28;22524;-72
2022/11/10 04:58:05;;;;;;;85.37;34.70;;;;;;;7.62;100.00;99969.91;4137108;28;20248;-71
2022/11/10 05:00:32;;;;;;;81.70;35.17;;;;;;;7.61;100.00;99962.94;4135563;28;26437;-71
2022/11/10 05:02:59;;;;;;;83.93;34.77;;;;;;;7.53;100.00;99960.94;4133982;28;20298;-70
2022/11/10 05:05:26;;;;;;;87.83;36.43;;;;;;;7.48;100.00;99962.34;4129767;28;20240;-72
2022/11/10 05:07:54;;;;;;;91.83;36.07;;;;;;;7.47;100.00;99960.66;4126618;28;20823;-72
2022/11/10 05:10:21;;;;;;;93.07;35.97;;;;;;;7.52;100.00;99966.41;4133432;28;20333;-70
2022/11/10 05:12:47;;;;;;;87.43;36.33;;;;;;;7.46;100.00;99967.78;4141065;28;20504;-71
2022/11/10 05:15:14;;;;;;;97.90;36.83;;;;;;;7.45;100.00;99970.56;4131801;28;20240;-70
2022/11/10 05:17:40;;;;;;;99.27;37.20;;;;;;;7.46;100.00;99977.53;4122091;28;20517;-74
2022/11/10 05:20:08;;;;;;;98.23;37.60;;;;;;;7.50;100.00;99978.94;4142230;28;21648;-73
2022/11/10 05:22:34;;;;;;;94.60;37.50;;;;;;;7.42;100.00;99976.94;4143141;28;20236;-70
2022/11/10 05:25:00;;;;;;;98.67;38.40;;;;;;;7.37;100.00;99980.03;4134871;28;20421;-71
2022/11/10 05:27:28;;;;;;;100.43;39.00;;;;;;;7.36;100.00;99981.00;4131107;28;20251;-73
2022/11/10 05:29:55;;;;;;;104.30;38.33;;;;;;;7.38;100.00;99996.75;4132771;28;20376;-73
2022/11/10 05:32:21;;;;;;;101.70;39.93;;;;;;;7.43;100.00;99999.81;4136419;28;20232;-73
2022/11/10 05:34:48;;;;;;;111.47;38.67;;;;;;;7.37;100.00;100006.50;4123734;28;26868;-70
2022/11/10 05:37:14;;;;;;;107.17;38.63;;;;;;;7.45;100.00;100003.19;4142820;28;20240;-70
2022/11/10 05:39:41;;;;;;;111.03;41.17;;;;;;;7.46;100.00;100012.78;4144280;28;20250;-73
2022/11/10 05:42:07;;;;;;;105.97;40.63;;;;;;;7.39;100.00;100015.13;4136354;28;21692;-73
2022/11/10 05:44:34;;;;;;;124.63;40.53;;;;;;;7.51;100.00;100020.31;4129251;28;21141;-72
2022/11/10 05:47:01;;;;;;;115.83;41.07;;;;;;;7.47;100.00;100022.41;4133782;28;21033;-71
2022/11/10 05:49:28;;;;;;;109.83;40.27;;;;;;;7.43;100.00;100036.88;4129884;28;20284;-71
2022/11/10 05:51:54;;;;;;;113.43;40.77;;;;;;;7.50;100.00;100032.72;4133382;29;20334;-71
2022/11/10 05:54:21;;;;;;;114.57;40.63;;;;;;;7.57;100.00;100036.50;4136378;28;20244;-72
2022/11/10 05:56:47;;;;;;;120.00;40.43;;;;;;;7.54;100.00;100044.72;4139712;28;20565;-70
2022/11/10 05:59:14;;;;;;;124.37;41.47;;;;;;;7.54;100.00;100047.38;4134611;28;21795;-71
2022/11/10 06:01:40;;;;;;;115.70;40.57;;;;;;;7.51;100.00;100044.97;4149320;28;20236;-71
2022/11/10 06:04:07;;;;;;;127.87;43.53;;;;;;;7.48;100.00;100053.19;4137133;28;21748;-71
2022/11/10 06:06:33;;;;;;;114.43;41.17;;;;;;;7.62;100.00;100059.94;4136994;28;22471;-71
2022/11/10 06:09:00;;;;;;;123.77;41.80;;;;;;;7.50;100.00;100061.84;4137451;28;20240;-74
2022/11/10 06:11:27;;;;;;;130.73;42.70;;;;;;;7.48;100.00;100066.44;4147031;28;20560;-72
2022/11/10 06:13:54;;;;;;;129.90;41.67;;;;;;;7.45;100.00;100066.72;4131521;28;20238;-46
2022/11/10 06:16:20;;;;;;;127.23;41.83;;;;;;;7.51;100.00;100071.44;4137931;28;20247;-76
2022/11/10 06:18:47;;;;;;;135.30;43.57;;;;;;;7.43;100.00;100073.94;4146283;28;20251;-68
2022/11/10 06:21:14;;;;;;;137.47;43.77;;;;;;;7.45;100.00;100074.66;4132194;28;20258;-76
2022/11/10 06:23:40;;;;;;;138.27;43.80;;;;;;;7.56;100.00;100084.28;4128789;28;20343;-71
2022/11/10 06:26:07;;;;;;;146.30;44.30;;;;;;;7.50;100.00;100080.38;4145683;28;25608;-70
2022/11/10 06:28:33;;;;;;;125.67;42.93;;;;;;;7.68;100.00;100091.19;4153786;28;21193;-72
2022/11/10 06:31:00;;;;;;;145.07;44.83;;;;;;;7.65;100.00;100090.59;4134879;28;20238;-71
2022/11/10 06:33:26;;;;;;;143.57;44.23;;;;;;;7.55;100.00;100096.69;4157483;28;20294;-68
2022/11/10 06:35:54;;;;;;;140.10;42.63;;;;;;;7.75;100.00;100099.41;4134590;28;20239;-69
2022/11/10 06:38:21;;;;;;;139.97;43.97;;;;;;;7.71;100.00;100098.00;4128074;28;20691;-69
2022/11/10 06:40:47;;;;;;;145.73;44.60;;;;;;;7.85;100.00;100099.44;4154590;28;21015;-70
2022/11/10 06:43:14;;;;;;;144.27;44.57;;;;;;;7.86;100.00;100104.59;4132995;28;20306;-69
2022/11/10 06:45:40;;;;;;;134.20;43.10;;;;;;;7.87;100.00;100122.19;4132624;28;20656;-67
2022/11/10 06:48:11;;;;;;;140.70;43.57;;;;;;;7.84;100.00;100122.44;4140843;28;22813;-74
2022/11/10 06:50:37;;;;;;;147.20;44.10;;;;;;;7.86;100.00;100123.13;4141709;28;20297;-71
2022/11/10 06:53:05;;;;;;;145.70;44.67;;;;;;;7.85;100.00;100126.78;4142470;28;20610;-70
2022/11/10 06:55:31;;;;;;;149.67;42.67;;;;;;;7.77;100.00;100131.88;4158186;28;22818;-72
2022/11/10 06:57:58;;;;;;;152.03;43.70;;;;;;;7.69;100.00;100131.72;4140590;29;20418;-69
2022/11/10 07:00:26;;;;;;;140.73;42.57;;;;;;;7.74;100.00;100137.47;4138721;28;20242;-70
2022/11/10 07:03:06;;;;;;;163.93;45.23;;;;;;;7.78;100.00;100141.53;4136097;28;20644;-68
2022/11/10 07:05:34;;;;;;;157.47;44.43;;;;;;;7.82;100.00;100142.94;4157656;28;20239;-70
2022/11/10 07:08:09;;;;;;;155.27;43.30;;;;;;;7.77;100.00;100142.47;4146594;28;23682;-69
2022/11/10 07:10:36;;;;;;;161.70;43.97;;;;;;;7.79;100.00;100151.13;4144024;29;20270;-69
2022/11/10 07:13:03;;;;;;;160.50;45.10;;;;;;;7.87;100.00;100145.19;4132127;28;20240;-70
2022/11/10 07:15:30;;;;;;;171.10;46.27;;;;;;;7.80;100.00;100139.59;4178197;28;20887;-69
2022/11/10 07:17:56;;;;;;;160.13;46.27;;;;;;;7.92;100.00;100145.63;4146221;28;20244;-70
2022/11/10 07:20:24;;;;;;;146.90;46.00;;;;;;;7.96;100.00;100144.34;4128066;28;20308;-71
2022/11/10 07:22:57;;;;;;;157.27;44.90;;;;;;;8.11;100.00;100150.97;4149563;28;20244;-69
2022/11/10 07:25:23;;;;;;;139.97;41.80;;;;;;;8.13;100.00;100158.78;4157754;28;21566;-70
2022/11/10 07:27:58;;;;;;;152.50;42.10;;;;;;;8.11;100.00;100152.78;4151193;28;20243;-70
2022/11/10 07:30:25;;;;;;;143.57;43.53;;;;;;;8.16;100.00;100161.16;4152977;28;22446;-70
2022/11/10 07:33:02;;;;;;;168.33;44.20;;;;;;;8.15;100.00;100162.13;4141320;28;21609;-69
2022/11/10 07:35:29;;;;;;;146.63;44.30;;;;;;;8.22;100.00;100163.28;4142005;28;20239;-69
2022/11/10 07:37:57;;;;;;;138.27;42.37;;;;;;;8.12;100.00;100171.16;4142369;28;21661;-67
2022/11/10 07:40:23;;;;;;;155.83;43.63;;;;;;;8.10;100.00;100166.97;4163897;28;20660;-70
2022/11/10 07:42:50;;;;;;;150.20;42.90;;;;;;;8.11;100.00;100168.69;4124177;28;20320;-69
2022/11/10 07:45:17;;;;;;;148.30;42.07;;;;;;;8.13;100.00;100177.34;4166962;28;20262;-69
2022/11/10 07:47:43;;;;;;;145.30;43.30;;;;;;;8.13;100.00;100178.16;4136610;29;21105;-67
2022/11/10 07:50:10;;;;;;;144.77;44.07;;;;;;;8.17;100.00;100174.28;4164688;28;20378;-70
2022/11/10 07:52:37;;;;;;;148.00;43.10;;;;;;;8.27;100.00;100182.25;4150153;28;22162;-69
2022/11/10 07:55:05;;;;;;;150.37;43.47;;;;;;;8.26;100.00;100183.22;4159351;28;22058;-71
2022/11/10 07:57:32;;;;;;;159.13;45.83;;;;;;;8.31;100.00;100183.66;4132716;29;20377;-68
2022/11/10 07:59:59;;;;;;;146.83;43.53;;;;;;;8.31;100.00;100194.25;4135883;28;20235;-70
2022/11/10 08:02:26;;;;;;;162.40;46.83;;;;;;;8.35;100.00;100187.69;4152392;28;20601;-68
2022/11/10 08:04:53;;;;;;;152.03;43.77;;;;;;;8.34;100.00;100196.63;4164795;28;21719;-65
2022/11/10 08:07:20;;;;;;;160.83;43.10;;;;;;;8.36;100.00;100194.69;4144171;28;20240;-67
2022/11/10 08:09:47;;;;;;;148.53;44.37;;;;;;;8.39;100.00;100196.22;4153734;28;20528;-73
2022/11/10 08:12:13;;;;;;;130.30;41.40;;;;;;;8.51;100.00;100212.88;4158074;28;20248;-68
2022/11/10 08:14:40;;;;;;;146.03;42.07;;;;;;;8.39;100.00;100214.78;4155168;28;20240;-71
2022/11/10 08:17:06;;;;;;;146.03;43.67;;;;;;;8.48;100.00;100221.13;4159681;28;20254;-71
2022/11/10 08:19:33;;;;;;;136.77;44.13;;;;;;;8.43;100.00;100225.00;4167276;28;25247;-67
2022/11/10 08:21:59;;;;;;;147.17;43.97;;;;;;;8.50;100.00;100217.34;4149814;28;20243;-66
2022/11/10 08:24:26;;;;;;;133.97;42.37;;;;;;;8.51;100.00;100219.03;4169378;28;21562;-68
2022/11/10 08:26:55;;;;;;;137.03;40.90;;;;;;;8.44;100.00;100223.19;4166021;28;20685;-68
2022/11/10 08:29:21;;;;;;;137.00;40.50;;;;;;;8.46;100.00;100215.94;4186745;28;20251;-67
2022/11/10 08:31:48;;;;;;;134.40;41.73;;;;;;;8.46;100.00;100221.25;4163987;28;22887;-68
2022/11/10 08:34:15;;;;;;;126.77;39.30;;;;;;;8.55;100.00;100231.03;4182516;28;20276;-68
2022/11/10 08:36:41;;;;;;;125.00;38.80;;;;;;;8.59;100.00;100236.88;4161378;28;20625;-67
2022/11/10 08:39:08;;;;;;;136.43;40.03;;;;;;;8.57;100.00;100234.41;4139166;28;22723;-68
2022/11/10 08:41:35;;;;;;;125.70;38.57;;;;;;;8.55;100.00;100236.34;4175615;28;20425;-71
2022/11/10 08:44:01;;;;;;;131.70;38.70;;;;;;;8.59;100.00;100242.19;4162024;29;20645;-72
2022/11/10 08:46:28;;;;;;;127.33;40.43;;;;;;;8.61;100.00;100245.56;4178256;28;20235;-71
2022/11/10 08:48:54;;;;;;;112.43;37.97;;;;;;;8.66;100.00;100251.28;4161261;28;20310;-68
2022/11/10 08:51:21;;;;;;;123.57;41.63;;;;;;;8.62;100.00;100258.69;4196528;28;20251;-69
2022/11/10 08:53:48;;;;;;;115.93;37.63;;;;;;;8.63;100.00;100268.31;4170478;28;20796;-69
2022/11/10 08:56:14;;;;;;;113.40;38.07;;;;;;;8.67;100.00;100274.19;4185378;28;22268;-71
2022/11/10 08:58:41;;;;;;;121.63;38.67;;;;;;;8.66;100.00;100273.38;4184836;28;21179;-69
2022/11/10 09:01:18;;;;;;;119.43;39.20;;;;;;;8.69;100.00;100274.91;4168581;28;20313;-70
2022/11/10 09:03:44;;;;;;;118.80;38.83;;;;;;;8.71;100.00;100282.69;4194077;28;21521;-71
2022/11/10 09:06:11;;;;;;;119.37;39.30;;;;;;;8.74;100.00;100285.09;4165093;28;20747;-70
2022/11/10 09:08:38;;;;;;;121.70;38.73;;;;;;;8.74;100.00;100283.28;4232060;28;21299;-71
2022/11/10 09:11:05;;;;;;;116.00;38.33;;;;;;;8.71;100.00;100280.91;4181256;28;20230;-69
2022/11/10 09:13:31;;;;;;;101.87;35.53;;;;;;;8.74;100.00;100288.59;4180712;28;25115;-71
2022/11/10 09:16:00;;;;;;;116.33;37.53;;;;;;;8.74;100.00;100291.25;4176210;28;20242;-70
2022/11/10 09:18:28;;;;;;;115.80;37.47;;;;;;;8.77;100.00;100301.56;4189318;28;20272;-71
2022/11/10 09:20:55;;;;;;;115.63;39.00;;;;;;;8.87;100.00;100298.94;4171614;28;20226;-71
2022/11/10 09:23:23;;;;;;;110.77;38.20;;;;;;;8.88;100.00;100305.94;4195701;28;20700;-69
2022/11/10 09:25:52;;;;;;;110.40;37.13;;;;;;;8.88;100.00;100300.63;4185943;28;20239;-70
2022/11/10 09:28:19;;;;;;;108.73;37.67;;;;;;;8.92;100.00;100295.88;4190728;28;20238;-69
2022/11/10 09:30:48;;;;;;;109.47;37.80;;;;;;;9.01;100.00;100293.25;4167592;28;20416;-70
2022/11/10 09:33:15;;;;;;;107.70;38.00;;;;;;;8.98;100.00;100308.59;4126603;28;20257;-72
2022/11/10 09:35:42;;;;;;;113.43;39.70;;;;;;;8.96;100.00;100311.38;4151134;28;21354;-69
2022/11/10 09:38:10;;;;;;;113.57;39.03;;;;;;;9.06;100.00;100309.59;4147555;28;20686;-72
2022/11/10 09:40:49;;;;;;;114.10;38.10;;;;;;;9.09;100.00;100321.75;4161245;28;20507;-69
2022/11/10 09:43:25;;;;;;;101.73;37.17;;;;;;;9.12;100.00;100317.97;4153371;28;20241;-70
2022/11/10 09:45:54;;;;;;;110.17;39.07;;;;;;;9.07;100.00;100316.56;4156839;29;21194;-70
2022/11/10 09:48:29;;;;;;;106.17;36.93;;;;;;;9.09;100.00;100313.78;4157532;28;20354;-69
2022/11/10 09:51:00;;;;;;;110.30;36.30;;;;;;;9.19;100.00;100319.09;4145401;28;20234;-71
2022/11/10 09:53:50;;;;;;;101.27;37.47;;;;;;;9.22;100.00;100321.47;4156991;29;20294;-69
2022/11/10 09:56:25;;;;;;;100.47;36.73;;;;;;;9.19;100.00;100330.53;4159852;28;20665;-71
2022/11/10 09:58:51;;;;;;;103.37;37.40;;;;;;;9.25;100.00;100326.53;4149153;29;21808;-70
2022/11/10 10:01:36;;;;;;;92.80;35.30;;;;;;;9.31;100.00;100333.91;4178965;28;20234;-70
2022/11/10 10:04:10;;;;;;;96.97;37.00;;;;;;;9.21;100.00;100336.56;4164272;28;21077;-70
2022/11/10 10:06:45;;;;;;;94.00;37.00;;;;;;;9.29;100.00;100335.84;4147054;28;21669;-69
2022/11/10 10:09:56;;;;;;;92.20;34.37;;;;;;;9.37;100.00;100321.91;4159331;28;20234;-71
2022/11/10 10:12:38;;;;;;;93.73;34.27;;;;;;;9.41;100.00;100329.44;4173354;28;20314;-72
2022/11/10 10:15:26;;;;;;;84.60;33.30;;;;;;;9.48;100.00;100343.84;4160213;28;21495;-65
2022/11/10 10:18:23;;;;;;;82.17;32.40;;;;;;;9.51;100.00;100345.38;4163603;28;20238;-72
2022/11/10 10:21:20;;;;;;;80.47;32.57;;;;;;;9.53;100.00;100346.09;4169501;28;20277;-69
2022/11/10 10:23:54;;;;;;;83.13;33.13;;;;;;;9.64;100.00;100345.91;4183793;28;20860;-72
2022/11/10 10:26:43;;;;;;;84.90;33.80;;;;;;;9.71;100.00;100347.03;4191497;28;20257;-72
2022/11/10 10:29:18;;;;;;;87.83;34.03;;;;;;;9.77;100.00;100339.50;4169286;28;20305;-70
2022/11/10 10:31:49;;;;;;;74.60;32.00;;;;;;;9.77;100.00;100342.16;4193535;28;20915;-70
2022/11/10 10:34:19;;;;;;;75.27;31.40;;;;;;;9.97;100.00;100345.59;4149741;28;20306;-75
2022/11/10 10:36:46;;;;;;;71.57;31.87;;;;;;;9.86;100.00;100342.13;4167602;28;20240;-72
2022/11/10 10:39:31;;;;;;;66.83;29.87;;;;;;;9.75;100.00;100346.75;4174536;28;20238;-74
2022/11/10 10:41:57;;;;;;;74.60;30.50;;;;;;;9.80;100.00;100349.81;4150843;28;20280;-72
2022/11/10 10:44:24;;;;;;;68.03;29.97;;;;;;;9.84;100.00;100343.25;4153870;28;20584;-73
2022/11/10 10:46:56;;;;;;;64.17;29.03;;;;;;;9.95;100.00;100348.41;4157842;28;20385;-73
2022/11/10 10:49:23;;;;;;;67.77;29.87;;;;;;;9.94;100.00;100346.72;4152973;28;26424;-72
2022/11/10 10:52:16;;;;;;;67.43;28.60;;;;;;;9.99;100.00;100354.28;4168350;28;20689;-73
2022/11/10 10:54:43;;;;;;;59.80;27.03;;;;;;;10.11;100.00;100346.00;4169260;28;20321;-72
2022/11/10 10:57:22;;;;;;;52.67;26.43;;;;;;;10.22;100.00;100346.78;4162926;28;20332;-70
2022/11/10 10:59:49;;;;;;;55.53;25.23;;;;;;;10.19;100.00;100344.44;4210592;28;20779;-71
2022/11/10 11:02:28;;;;;;;55.43;24.67;;;;;;;10.30;100.00;100352.25;4169947;28;20234;-71
2022/11/10 11:05:13;;;;;;;50.00;23.53;;;;;;;10.29;100.00;100347.91;4162585;28;23172;-70
2022/11/10 11:07:40;;;;;;;45.47;22.03;;;;;;;10.32;100.00;100356.47;4170625;28;23254;-75
2022/11/10 11:10:34;;;;;;;45.57;22.07;;;;;;;10.33;100.00;100360.78;4152160;28;20238;-69
2022/11/10 11:13:22;;;;;;;46.07;22.47;;;;;;;10.35;100.00;100358.00;4171024;28;21747;-71
2022/11/10 11:16:13;;;;;;;46.40;22.23;;;;;;;10.29;100.00;100362.06;4163226;28;20304;-70
2022/11/10 11:18:40;;;;;;;43.07;21.07;;;;;;;10.35;100.00;100361.47;4171537;28;22263;-72
2022/11/10 11:21:16;;;;;;;39.83;20.73;;;;;;;10.38;100.00;100365.66;4140811;28;20237;-72
2022/11/10 11:23:58;;;;;;;39.93;20.30;;;;;;;10.30;100.00;100365.53;4175286;28;21646;-73
2022/11/10 11:26:47;;;;;;;42.23;20.47;;;;;;;10.38;100.00;100371.00;4149211;28;20332;-72
2022/11/10 11:29:39;;;;;;;43.83;19.87;;;;;;;10.43;100.00;100363.41;4147317;28;22294;-70
2022/11/10 11:32:14;;;;;;;41.23;19.60;;;;;;;10.43;100.00;100375.88;4168196;28;20246;-73
2022/11/10 11:35:06;;;;;;;41.30;20.20;;;;;;;10.43;100.00;100370.56;4171563;28;22311;-70